This is the latest recevied weather packets stored in our database for station/object EA7URS-13. If no packets are shown the sender has not sent any weather packets the latest 10 day(s).
| Time | Temp. | Humidity | Pressure | Rain* | Wind** | Luminosity | Snow |
|---|---|---|---|---|---|---|---|
| 1788463036 | 35.56° C | 41% | 1010.1 hPa | 0 mm | - | 0 W/m² | - |
| 1788462735 | 36.67° C | 38% | 1010 hPa | 0 mm | - | 0 W/m² | - |
| 1788462434 | 36.67° C | 38% | 1010 hPa | 0 mm | - | 0 W/m² | - |
| 1788462133 | 37.78° C | 33% | 1010.1 hPa | 0 mm | - | 2 W/m² | - |
| 1788461832 | 37.78° C | 33% | 1010.1 hPa | 0 mm | - | 2 W/m² | - |
| 1788461531 | 40.56° C | 19% | 1009.8 hPa | 0 mm | - | 5 W/m² | - |
| 1788461230 | 40.56° C | 19% | 1009.8 hPa | 0 mm | - | 5 W/m² | - |
| 1788460929 | 41.67° C | 18% | 1009.9 hPa | 0 mm | - | 10 W/m² | - |
| 1788460628 | 41.67° C | 18% | 1009.9 hPa | 0 mm | - | 10 W/m² | - |
| 1788460327 | 41.67° C | 18% | 1009.7 hPa | 0 mm | - | 17 W/m² | - |
| 1788460026 | 41.67° C | 18% | 1009.7 hPa | 0 mm | - | 17 W/m² | - |
| 1788459724 | 41.67° C | 18% | 1010 hPa | 0 mm | - | 24 W/m² | - |
| 1788459423 | 41.67° C | 18% | 1010 hPa | 0 mm | - | 24 W/m² | - |
| 1788459122 | 42.22° C | 17% | 1009.8 hPa | 0 mm | - | 32 W/m² | - |
| 1788458821 | 42.22° C | 17% | 1009.8 hPa | 0 mm | - | 32 W/m² | - |
| 1788458520 | 42.22° C | 18% | 1010 hPa | 0 mm | - | 38 W/m² | - |
| 1788458219 | 42.22° C | 18% | 1010 hPa | 0 mm | - | 38 W/m² | - |
| 1788457918 | 42.78° C | 17% | 1010 hPa | 0 mm | - | 43 W/m² | - |
| 1788457617 | 42.78° C | 17% | 1010 hPa | 0 mm | - | 43 W/m² | - |
| 1788457316 | 42.22° C | 18% | 1009.8 hPa | 0 mm | - | 49 W/m² | - |
| 1788457015 | 42.22° C | 18% | 1009.8 hPa | 0 mm | - | 49 W/m² | - |
| 1788456713 | 42.78° C | 16% | 1009.8 hPa | 0 mm | - | 74 W/m² | - |
| 1788456412 | 42.78° C | 16% | 1009.8 hPa | 0 mm | - | 74 W/m² | - |
| 1788456111 | 42.78° C | 17% | 1009.8 hPa | 0 mm | - | 87 W/m² | - |
| 1788455810 | 42.78° C | 17% | 1009.8 hPa | 0 mm | - | 87 W/m² | - |
* Rain latest hour (hover to see other rain measurements)
** Current wind speed in m/s (hover to see current wind gust speed)